createdAt,value
2023-02-07T00:01:48.732Z,42.50
2023-02-07T00:04:17.343Z,42.20
2023-02-07T00:06:46.047Z,41.50
2023-02-07T00:09:14.805Z,41.50
2023-02-07T00:11:45.083Z,40.90
2023-02-07T00:14:14.711Z,40.80
2023-02-07T00:16:44.041Z,40.70
2023-02-07T00:19:12.930Z,40.10
2023-02-07T00:21:41.628Z,40.40
2023-02-07T00:24:10.329Z,40.30
2023-02-07T00:26:41.963Z,40.30
2023-02-07T00:29:12.612Z,40.60
2023-02-07T00:31:45.780Z,40.40
2023-02-07T00:34:14.564Z,40.90
2023-02-07T00:36:45.747Z,41.20
2023-02-07T00:39:17.550Z,41.40
2023-02-07T00:41:51.529Z,42.10
2023-02-07T00:44:21.703Z,41.50
2023-02-07T00:46:50.300Z,40.90
2023-02-07T00:49:19.189Z,40.80
2023-02-07T00:51:48.166Z,40.60
2023-02-07T00:54:16.861Z,40.00
2023-02-07T00:56:45.670Z,40.10
2023-02-07T00:59:14.310Z,40.00
2023-02-07T01:01:44.440Z,39.60
2023-02-07T01:04:19.304Z,39.50
2023-02-07T01:06:47.943Z,39.20
2023-02-07T01:09:16.629Z,39.60
2023-02-07T01:11:45.190Z,40.00
2023-02-07T01:14:13.797Z,40.30
2023-02-07T01:16:44.283Z,40.50
2023-02-07T01:19:13.982Z,41.10
2023-02-07T01:21:42.721Z,41.50
2023-02-07T01:24:11.958Z,41.70
2023-02-07T01:26:41.195Z,41.80
2023-02-07T01:29:11.856Z,41.70
2023-02-07T01:31:42.322Z,41.90
2023-02-07T01:34:14.650Z,41.40
2023-02-07T01:36:43.270Z,41.10
2023-02-07T01:39:11.920Z,40.90
2023-02-07T01:41:40.833Z,41.00
2023-02-07T01:44:48.645Z,41.10
2023-02-07T01:47:22.242Z,41.30
2023-02-07T01:49:56.895Z,40.50
2023-02-07T01:52:31.730Z,40.60
2023-02-07T01:55:08.637Z,40.70
2023-02-07T01:57:38.032Z,40.50
2023-02-07T02:00:09.718Z,40.50
2023-02-07T02:02:39.819Z,40.20
2023-02-07T02:05:12.117Z,39.80
2023-02-07T02:07:42.212Z,38.60
2023-02-07T02:10:17.310Z,37.80
2023-02-07T02:13:07.537Z,37.90
2023-02-07T02:15:49.274Z,38.60
2023-02-07T02:18:46.062Z,38.60
2023-02-07T02:21:59.686Z,39.00
2023-02-07T02:25:12.640Z,39.00
2023-02-07T02:28:31.056Z,39.40
2023-02-07T02:31:46.581Z,40.00
2023-02-07T02:34:25.089Z,40.50
2023-02-07T02:37:04.891Z,41.30
2023-02-07T02:39:42.319Z,40.60
2023-02-07T02:42:19.254Z,40.50
2023-02-07T02:44:55.308Z,40.30
2023-02-07T02:47:26.917Z,39.90
2023-02-07T02:49:57.365Z,39.80
2023-02-07T02:52:44.685Z,39.70
2023-02-07T02:55:17.964Z,39.30
2023-02-07T02:58:02.452Z,39.30
2023-02-07T03:00:58.403Z,39.40
2023-02-07T03:04:00.383Z,39.60
2023-02-07T03:06:56.317Z,39.60
2023-02-07T03:09:41.978Z,39.30
2023-02-07T03:12:23.956Z,39.20
2023-02-07T03:15:05.754Z,39.00
2023-02-07T03:17:44.230Z,39.00
2023-02-07T03:20:22.186Z,39.80
2023-02-07T03:22:55.651Z,39.90
2023-02-07T03:25:26.098Z,39.80
2023-02-07T03:27:57.170Z,40.00
2023-02-07T03:30:31.738Z,39.80
2023-02-07T03:33:11.808Z,40.00
2023-02-07T03:35:48.902Z,39.60
2023-02-07T03:38:19.584Z,39.90
2023-02-07T03:40:54.884Z,39.80
2023-02-07T03:43:28.428Z,40.40
2023-02-07T03:45:57.940Z,39.70
2023-02-07T03:48:26.761Z,39.60
2023-02-07T03:50:55.315Z,39.10
2023-02-07T03:53:25.369Z,38.80
2023-02-07T03:55:54.465Z,38.00
2023-02-07T03:58:23.304Z,38.50
2023-02-07T04:00:52.026Z,38.50
2023-02-07T04:03:20.584Z,38.60
2023-02-07T04:05:49.671Z,37.80
2023-02-07T04:08:18.256Z,37.70
2023-02-07T04:10:59.398Z,37.80
2023-02-07T04:13:28.362Z,37.60
2023-02-07T04:15:57.270Z,37.70
2023-02-07T04:18:25.957Z,38.40
2023-02-07T04:21:03.318Z,38.90
2023-02-07T04:23:32.705Z,39.40
2023-02-07T04:26:02.810Z,39.00
2023-02-07T04:28:31.719Z,39.40
2023-02-07T04:31:00.366Z,39.30
2023-02-07T04:33:28.952Z,38.80
2023-02-07T04:35:59.014Z,38.60
2023-02-07T04:38:29.057Z,38.10
2023-02-07T04:41:04.375Z,37.80
2023-02-07T04:43:34.154Z,37.50
2023-02-07T04:46:02.916Z,37.20
2023-02-07T04:48:31.835Z,37.10
2023-02-07T04:51:00.600Z,36.70
2023-02-07T04:53:29.299Z,36.70
2023-02-07T04:55:57.983Z,36.60
2023-02-07T04:58:28.857Z,36.60
2023-02-07T05:00:57.433Z,36.40
2023-02-07T05:03:26.087Z,36.00
2023-02-07T05:05:55.961Z,36.10
2023-02-07T05:08:26.276Z,35.30
2023-02-07T05:10:56.483Z,34.50
2023-02-07T05:13:27.359Z,34.40
2023-02-07T05:15:55.987Z,34.50
2023-02-07T05:18:24.982Z,34.60
2023-02-07T05:20:55.568Z,34.60
2023-02-07T05:23:24.230Z,34.80
2023-02-07T05:25:52.938Z,34.80
2023-02-07T05:28:21.812Z,34.80
2023-02-07T05:30:55.447Z,34.70
2023-02-07T05:33:23.147Z,34.90
2023-02-07T05:35:51.725Z,34.50
2023-02-07T05:38:21.851Z,34.60
2023-02-07T05:40:50.930Z,34.80
2023-02-07T05:43:19.765Z,34.30
2023-02-07T05:45:48.349Z,34.00
2023-02-07T05:48:20.443Z,34.20
2023-02-07T05:50:49.613Z,33.90
2023-02-07T05:53:18.729Z,33.40
2023-02-07T05:55:47.297Z,33.50
2023-02-07T05:58:15.958Z,33.50
2023-02-07T06:00:44.820Z,33.80
2023-02-07T06:03:13.434Z,33.70
2023-02-07T06:05:43.489Z,33.80
2023-02-07T06:08:12.050Z,34.00
2023-02-07T06:10:41.130Z,34.00
2023-02-07T06:13:09.765Z,34.00
2023-02-07T06:15:38.848Z,34.30
2023-02-07T06:18:07.923Z,34.60
2023-02-07T06:20:36.620Z,35.00
2023-02-07T06:23:06.607Z,35.30
2023-02-07T06:25:35.510Z,35.60
2023-02-07T06:28:04.293Z,35.50
2023-02-07T06:30:32.929Z,35.60
2023-02-07T06:33:01.668Z,35.40
2023-02-07T06:35:30.244Z,35.10
2023-02-07T06:37:59.205Z,34.70
2023-02-07T06:40:29.422Z,34.80
2023-02-07T06:42:58.107Z,34.30
2023-02-07T06:46:18.831Z,33.90
2023-02-07T06:48:47.917Z,34.20
2023-02-07T06:51:16.537Z,34.20
2023-02-07T06:53:45.202Z,34.30
2023-02-07T06:56:17.730Z,34.40
2023-02-07T06:58:47.170Z,34.30
2023-02-07T07:01:20.386Z,34.30
2023-02-07T07:03:49.147Z,34.20
2023-02-07T07:06:17.616Z,34.30
2023-02-07T07:08:46.162Z,34.70
2023-02-07T07:11:16.134Z,35.50
2023-02-07T07:13:44.623Z,35.30
2023-02-07T07:16:13.161Z,34.60
2023-02-07T07:18:41.986Z,34.20
2023-02-07T07:21:11.124Z,33.10
2023-02-07T07:23:39.645Z,33.40
2023-02-07T07:26:08.178Z,34.20
2023-02-07T07:28:38.062Z,34.90
2023-02-07T07:31:09.581Z,35.10
2023-02-07T07:33:38.530Z,34.50
2023-02-07T07:36:09.886Z,32.20
2023-02-07T07:38:38.826Z,32.00
2023-02-07T07:41:07.536Z,28.90
2023-02-07T07:43:37.558Z,26.90
2023-02-07T07:46:07.761Z,26.60
2023-02-07T07:48:36.353Z,25.20
2023-02-07T07:51:05.277Z,24.20
2023-02-07T07:53:33.833Z,22.40
2023-02-07T07:56:02.307Z,21.10
2023-02-07T07:58:30.896Z,19.80
2023-02-07T08:01:00.920Z,19.90
2023-02-07T08:03:29.525Z,18.00
2023-02-07T08:05:58.062Z,17.80
2023-02-07T08:08:26.596Z,16.50
2023-02-07T08:10:55.244Z,16.50
2023-02-07T08:13:24.500Z,16.00
2023-02-07T08:15:54.445Z,14.20
2023-02-07T08:18:24.597Z,14.80
2023-02-07T08:20:53.385Z,14.90
2023-02-07T08:23:22.090Z,14.80
2023-02-07T08:25:50.971Z,14.20
2023-02-07T08:28:20.804Z,13.90
2023-02-07T08:30:49.789Z,13.00
2023-02-07T08:33:19.236Z,13.10
2023-02-07T08:35:52.027Z,12.20
2023-02-07T08:38:20.623Z,11.70
2023-02-07T08:40:49.388Z,11.10
2023-02-07T08:43:18.398Z,10.90
2023-02-07T08:45:50.285Z,11.40
2023-02-07T08:48:23.071Z,10.60
2023-02-07T08:50:53.147Z,9.40
2023-02-07T08:53:21.658Z,10.00
2023-02-07T08:55:50.207Z,9.20
2023-02-07T08:58:19.049Z,8.60
2023-02-07T09:00:47.926Z,8.80
2023-02-07T09:03:16.470Z,8.70
2023-02-07T09:05:45.112Z,9.80
2023-02-07T09:08:14.968Z,9.20
2023-02-07T09:10:45.394Z,8.30
2023-02-07T09:13:15.043Z,7.90
2023-02-07T09:15:43.653Z,7.30
2023-02-07T09:18:12.119Z,7.10
2023-02-07T09:20:41.216Z,6.30
2023-02-07T09:23:19.392Z,6.10
2023-02-07T09:25:52.535Z,5.80
2023-02-07T09:28:23.584Z,6.20
2023-02-07T09:30:52.970Z,5.10
2023-02-07T09:33:23.274Z,4.50
2023-02-07T09:35:54.211Z,4.30
2023-02-07T09:38:25.856Z,3.80
2023-02-07T09:41:00.922Z,3.70
2023-02-07T09:43:45.652Z,3.10
2023-02-07T09:46:22.771Z,3.10
2023-02-07T09:49:01.642Z,3.50
2023-02-07T09:51:30.422Z,2.30
2023-02-07T09:54:04.175Z,2.50
2023-02-07T09:56:37.258Z,2.10
2023-02-07T09:59:22.856Z,2.60
2023-02-07T10:01:58.834Z,2.90
2023-02-07T10:04:35.055Z,2.20
2023-02-07T10:07:09.021Z,1.10
2023-02-07T10:09:43.557Z,1.00
2023-02-07T10:12:50.870Z,1.00
2023-02-07T10:15:43.977Z,1.00
2023-02-07T10:18:34.054Z,1.00
2023-02-07T10:21:13.236Z,1.00
2023-02-07T10:24:01.379Z,1.00
2023-02-07T10:26:38.070Z,1.00
2023-02-07T10:29:41.977Z,1.00
2023-02-07T10:32:17.625Z,1.00
2023-02-07T10:34:48.461Z,1.00
2023-02-07T10:37:23.568Z,1.00
2023-02-07T10:40:02.011Z,1.00
2023-02-07T10:42:34.924Z,1.00
2023-02-07T10:45:05.602Z,1.00
2023-02-07T10:47:40.620Z,1.00
2023-02-07T10:50:24.778Z,1.00
2023-02-07T10:52:59.253Z,1.00
2023-02-07T10:55:43.109Z,1.00
2023-02-07T10:58:23.122Z,1.00
2023-02-07T11:00:55.848Z,1.00
2023-02-07T11:03:26.752Z,1.00
2023-02-07T11:05:58.986Z,1.00
2023-02-07T11:08:30.985Z,1.00
2023-02-07T11:11:17.701Z,1.00
2023-02-07T11:13:51.743Z,1.00
2023-02-07T11:16:24.925Z,1.00
2023-02-07T11:18:59.949Z,1.00
2023-02-07T11:21:36.023Z,1.00
2023-02-07T11:24:13.570Z,1.00
2023-02-07T11:26:57.280Z,1.00
2023-02-07T11:29:27.781Z,1.00
2023-02-07T11:32:01.331Z,1.00
2023-02-07T11:34:47.126Z,1.00
2023-02-07T11:37:32.496Z,1.00
2023-02-07T11:40:24.929Z,1.00
2023-02-07T11:43:04.218Z,1.00
2023-02-07T11:45:35.717Z,1.00
2023-02-07T11:48:07.582Z,1.00
2023-02-07T11:50:41.147Z,1.00
2023-02-07T11:53:24.704Z,1.00
2023-02-07T11:55:57.392Z,1.00
2023-02-07T11:58:36.018Z,1.00
2023-02-07T12:01:07.383Z,1.00
2023-02-07T12:03:46.323Z,1.00
2023-02-07T12:06:20.117Z,1.00
2023-02-07T12:08:49.592Z,1.00
2023-02-07T12:11:25.204Z,1.00
2023-02-07T12:14:02.167Z,1.00
2023-02-07T12:16:37.187Z,1.00
2023-02-07T12:19:19.067Z,1.00
2023-02-07T12:22:01.454Z,1.00
2023-02-07T12:24:37.134Z,1.00
2023-02-07T12:27:15.763Z,1.00
2023-02-07T12:30:00.150Z,1.00
2023-02-07T12:32:45.581Z,1.00
2023-02-07T12:35:26.528Z,1.00
2023-02-07T12:38:06.400Z,1.00
2023-02-07T12:40:44.261Z,1.00
2023-02-07T12:43:21.505Z,1.00
2023-02-07T12:46:10.878Z,1.00
2023-02-07T12:49:06.496Z,1.00
2023-02-07T12:51:53.350Z,1.00
2023-02-07T12:54:40.607Z,1.00
2023-02-07T12:57:17.181Z,1.00
2023-02-07T13:00:06.295Z,1.00
2023-02-07T13:02:52.488Z,1.00
2023-02-07T13:06:03.073Z,1.00
2023-02-07T13:08:49.589Z,1.00
2023-02-07T13:11:37.289Z,1.00
2023-02-07T13:14:32.114Z,1.00
2023-02-07T13:17:26.479Z,1.00
2023-02-07T13:20:04.909Z,1.00
2023-02-07T13:22:41.509Z,1.00
2023-02-07T13:25:23.006Z,1.00
2023-02-07T13:27:57.390Z,1.00
2023-02-07T13:30:27.852Z,1.00
2023-02-07T13:33:00.712Z,1.00
2023-02-07T13:35:35.763Z,1.00
2023-02-07T13:38:15.954Z,1.00
2023-02-07T13:41:00.556Z,1.00
2023-02-07T13:44:08.991Z,1.00
2023-02-07T13:47:01.743Z,1.00
2023-02-07T13:49:44.632Z,1.00
2023-02-07T13:52:22.780Z,1.00
2023-02-07T13:55:10.612Z,1.00
2023-02-07T13:58:03.271Z,1.00
2023-02-07T14:00:36.841Z,1.00
2023-02-07T14:03:09.063Z,1.00
2023-02-07T14:05:44.803Z,1.00
2023-02-07T14:08:25.526Z,1.00
2023-02-07T14:10:56.793Z,1.00
2023-02-07T14:13:34.194Z,1.00
2023-02-07T14:16:10.149Z,1.00
2023-02-07T14:18:51.366Z,1.00
2023-02-07T14:21:43.397Z,1.00
2023-02-07T14:24:33.038Z,1.00
2023-02-07T14:27:26.976Z,1.00
2023-02-07T14:30:31.041Z,1.00
2023-02-07T14:33:14.388Z,1.00
2023-02-07T14:36:08.137Z,1.00
2023-02-07T14:38:41.134Z,1.00
2023-02-07T14:41:14.925Z,1.00
2023-02-07T14:44:07.115Z,1.00
2023-02-07T14:46:42.015Z,1.00
2023-02-07T14:49:20.040Z,1.00
2023-02-07T14:51:51.758Z,1.00
2023-02-07T14:54:28.759Z,1.00
2023-02-07T14:57:13.061Z,1.00
2023-02-07T14:59:47.827Z,1.00
2023-02-07T15:02:41.590Z,1.00
2023-02-07T15:05:21.205Z,1.00
2023-02-07T15:07:57.094Z,1.00
2023-02-07T15:10:32.749Z,1.00
2023-02-07T15:13:04.294Z,1.00
2023-02-07T15:15:45.595Z,1.00
2023-02-07T15:18:19.456Z,1.00
2023-02-07T15:20:53.307Z,1.00
2023-02-07T15:23:24.132Z,1.00
2023-02-07T15:25:52.829Z,1.60
2023-02-07T15:28:27.918Z,2.60
2023-02-07T15:31:03.045Z,2.80
2023-02-07T15:33:36.997Z,4.40
2023-02-07T15:36:28.785Z,5.30
2023-02-07T15:38:58.530Z,6.00
2023-02-07T15:41:28.057Z,6.00
2023-02-07T15:44:02.164Z,6.70
2023-02-07T15:46:47.285Z,7.10
2023-02-07T15:49:30.891Z,7.60
2023-02-07T15:52:16.424Z,8.00
2023-02-07T15:54:49.487Z,8.20
2023-02-07T15:57:26.508Z,9.50
2023-02-07T15:59:57.485Z,10.00
2023-02-07T16:02:31.583Z,10.80
2023-02-07T16:05:10.777Z,10.80
2023-02-07T16:07:40.767Z,10.70
2023-02-07T16:10:33.108Z,10.90
2023-02-07T16:13:03.629Z,11.70
2023-02-07T16:15:35.502Z,11.70
2023-02-07T16:18:06.995Z,12.40
2023-02-07T16:20:38.406Z,12.40
2023-02-07T16:23:10.589Z,12.60
2023-02-07T16:25:39.278Z,13.00
2023-02-07T16:28:15.623Z,13.20
2023-02-07T16:30:44.331Z,13.40
2023-02-07T16:33:16.770Z,13.40
2023-02-07T16:35:47.079Z,13.60
2023-02-07T16:38:15.521Z,14.60
2023-02-07T16:40:44.268Z,15.10
2023-02-07T16:43:35.616Z,15.60
2023-02-07T16:46:05.136Z,16.20
2023-02-07T16:48:33.733Z,17.10
2023-02-07T16:51:03.596Z,17.50
2023-02-07T16:53:32.141Z,18.10
2023-02-07T16:56:01.361Z,18.40
2023-02-07T16:58:33.738Z,18.50
2023-02-07T17:01:02.968Z,18.70
2023-02-07T17:03:31.727Z,19.30
2023-02-07T17:06:00.230Z,19.50
2023-02-07T17:08:30.660Z,20.30
2023-02-07T17:11:05.586Z,21.00
2023-02-07T17:13:34.915Z,21.70
2023-02-07T17:16:03.775Z,22.30
2023-02-07T17:18:32.404Z,22.40
2023-02-07T17:21:00.954Z,22.80
2023-02-07T17:23:30.920Z,23.60
2023-02-07T17:25:59.489Z,24.10
2023-02-07T17:28:28.942Z,24.20
2023-02-07T17:30:57.817Z,24.70
2023-02-07T17:33:26.402Z,25.40
2023-02-07T17:35:55.106Z,25.30
2023-02-07T17:38:23.669Z,25.50
2023-02-07T17:40:54.146Z,25.60
2023-02-07T17:43:22.624Z,26.10
2023-02-07T17:45:51.151Z,27.70
2023-02-07T17:48:19.769Z,28.10
2023-02-07T17:50:48.364Z,28.10
2023-02-07T17:53:21.506Z,28.20
2023-02-07T17:55:51.045Z,28.50
2023-02-07T17:58:20.991Z,28.70
2023-02-07T18:00:49.751Z,28.60
2023-02-07T18:03:18.449Z,28.60
2023-02-07T18:05:46.996Z,28.50
2023-02-07T18:08:15.780Z,28.30
2023-02-07T18:10:44.383Z,28.40
2023-02-07T18:13:12.958Z,28.60
2023-02-07T18:15:45.308Z,28.90
2023-02-07T18:18:16.684Z,29.10
2023-02-07T18:20:45.444Z,29.20
2023-02-07T18:23:15.612Z,29.70
2023-02-07T18:25:51.128Z,30.20
2023-02-07T18:28:20.103Z,30.90
2023-02-07T18:30:50.454Z,31.50
2023-02-07T18:33:20.348Z,31.30
2023-02-07T18:35:51.512Z,31.00
2023-02-07T18:38:20.117Z,31.60
2023-02-07T18:40:48.874Z,31.70
2023-02-07T18:43:17.490Z,31.70
2023-02-07T18:45:46.334Z,31.30
2023-02-07T18:48:16.503Z,31.00
2023-02-07T18:50:46.285Z,30.80
2023-02-07T18:53:15.335Z,30.60
2023-02-07T18:55:44.201Z,30.70
2023-02-07T18:58:13.252Z,30.60
2023-02-07T19:00:43.508Z,30.30
2023-02-07T19:03:12.255Z,30.20
2023-02-07T19:05:42.742Z,30.00
2023-02-07T19:08:11.332Z,29.80
2023-02-07T19:10:40.272Z,30.20
2023-02-07T19:13:09.056Z,30.50
2023-02-07T19:15:37.598Z,30.60
2023-02-07T19:18:06.569Z,30.50
2023-02-07T19:20:35.157Z,30.50
2023-02-07T19:23:05.229Z,30.50
2023-02-07T19:25:33.843Z,30.20
2023-02-07T19:28:02.543Z,30.50
2023-02-07T19:30:31.715Z,30.50
2023-02-07T19:33:00.368Z,30.40
2023-02-07T19:35:31.868Z,30.30
2023-02-07T19:38:00.582Z,30.20
2023-02-07T19:40:31.050Z,29.90
2023-02-07T19:42:59.591Z,30.20
2023-02-07T19:45:30.586Z,30.50
2023-02-07T19:47:59.180Z,30.70
2023-02-07T19:50:27.822Z,30.80
2023-02-07T19:52:56.435Z,30.70
2023-02-07T19:55:24.935Z,30.60
2023-02-07T19:57:55.549Z,30.10
2023-02-07T20:00:24.348Z,30.30
2023-02-07T20:02:52.943Z,30.20
2023-02-07T20:05:21.539Z,30.30
2023-02-07T20:07:50.143Z,30.40
2023-02-07T20:10:18.912Z,30.30
2023-02-07T20:12:48.417Z,30.30
2023-02-07T20:15:18.785Z,30.40
2023-02-07T20:17:48.506Z,30.30
2023-02-07T20:20:18.263Z,30.30
2023-02-07T20:22:46.895Z,30.30
2023-02-07T20:25:15.801Z,30.40
2023-02-07T20:27:44.617Z,30.20
2023-02-07T20:30:14.324Z,30.30
2023-02-07T20:32:44.735Z,30.30
2023-02-07T20:35:14.865Z,30.30
2023-02-07T20:37:43.637Z,30.40
2023-02-07T20:40:12.962Z,30.30
2023-02-07T20:42:41.515Z,30.40
2023-02-07T20:45:11.745Z,30.40
2023-02-07T20:47:40.516Z,30.50
2023-02-07T20:50:10.846Z,30.70
2023-02-07T20:52:39.546Z,30.90
2023-02-07T20:55:09.614Z,31.00
2023-02-07T20:57:38.096Z,30.90
2023-02-07T21:00:08.890Z,30.80
2023-02-07T21:02:38.578Z,30.60
2023-02-07T21:05:09.691Z,30.60
2023-02-07T21:07:38.422Z,30.60
2023-02-07T21:10:08.424Z,30.70
2023-02-07T21:12:37.012Z,30.30
2023-02-07T21:15:06.006Z,30.50
2023-02-07T21:17:36.844Z,30.40
2023-02-07T21:20:06.674Z,30.40
2023-02-07T21:22:36.850Z,30.40
2023-02-07T21:25:05.491Z,30.50
2023-02-07T21:27:34.127Z,30.50
2023-02-07T21:30:02.730Z,30.20
2023-02-07T21:32:31.468Z,30.10
2023-02-07T21:35:00.025Z,30.20
2023-02-07T21:37:28.628Z,30.30
2023-02-07T21:39:58.807Z,30.20
2023-02-07T21:42:27.481Z,30.10
2023-02-07T21:44:56.079Z,30.10
2023-02-07T21:47:24.743Z,30.30
2023-02-07T21:49:53.248Z,30.30
2023-02-07T21:52:22.066Z,30.30
2023-02-07T21:54:53.868Z,30.20
2023-02-07T21:57:23.828Z,30.10
2023-02-07T21:59:52.317Z,30.10
2023-02-07T22:02:20.933Z,30.30
2023-02-07T22:04:49.515Z,30.20
2023-02-07T22:07:21.101Z,30.00
2023-02-07T22:09:52.079Z,30.20
2023-02-07T22:12:20.619Z,30.20
2023-02-07T22:14:50.534Z,30.30
2023-02-07T22:17:20.122Z,30.00
2023-02-07T22:19:51.713Z,29.90
2023-02-07T22:22:20.249Z,29.90
2023-02-07T22:24:51.255Z,30.20
2023-02-07T22:27:20.031Z,30.20
2023-02-07T22:29:50.213Z,30.20
2023-02-07T22:32:20.245Z,30.10
2023-02-07T22:34:48.851Z,29.90
2023-02-07T22:37:17.438Z,29.90
2023-02-07T22:39:47.478Z,29.80
2023-02-07T22:42:17.049Z,29.70
2023-02-07T22:44:45.644Z,29.80
2023-02-07T22:47:15.582Z,29.40
2023-02-07T22:49:44.177Z,29.40
2023-02-07T22:52:12.638Z,29.50
2023-02-07T22:54:42.124Z,29.50
2023-02-07T22:57:13.410Z,29.40
2023-02-07T22:59:41.979Z,29.50
2023-02-07T23:02:11.938Z,29.50
2023-02-07T23:04:43.231Z,29.40
2023-02-07T23:07:11.894Z,29.50
2023-02-07T23:09:40.459Z,29.60
2023-02-07T23:12:09.517Z,29.60
2023-02-07T23:14:40.419Z,29.60
2023-02-07T23:17:09.395Z,29.20
2023-02-07T23:19:37.936Z,29.30
2023-02-07T23:22:07.952Z,29.30
2023-02-07T23:24:36.588Z,29.40
2023-02-07T23:27:05.985Z,29.20
2023-02-07T23:29:34.694Z,28.90
2023-02-07T23:32:03.240Z,29.00
2023-02-07T23:34:32.066Z,29.10
2023-02-07T23:37:00.771Z,28.90
2023-02-07T23:39:31.454Z,29.10
2023-02-07T23:42:00.100Z,29.20
2023-02-07T23:44:28.819Z,29.30
2023-02-07T23:46:57.529Z,29.30
2023-02-07T23:49:26.091Z,29.30
2023-02-07T23:51:54.803Z,29.30
2023-02-07T23:54:23.356Z,28.80
2023-02-07T23:56:53.384Z,28.90
2023-02-07T23:59:21.966Z,28.80
